createdAt,value
2023-03-17T00:43:31.323Z,421.78
2023-03-17T00:44:31.317Z,383.02
2023-03-17T00:45:31.338Z,356.39
2023-03-17T00:46:31.371Z,342.98
2023-03-17T00:47:30.965Z,336.30
2023-03-17T00:48:30.842Z,330.21
2023-03-17T00:49:30.966Z,327.90
2023-03-17T00:50:31.240Z,326.92
2023-03-17T00:51:30.852Z,324.02
2023-03-17T00:52:30.792Z,322.11
2023-03-17T00:53:30.864Z,318.36
2023-03-17T00:54:30.831Z,320.22
2023-03-17T00:55:30.810Z,317.13
2023-03-17T00:56:30.832Z,315.30
2023-03-17T00:57:30.861Z,316.52
2023-03-17T00:58:30.777Z,314.39
2023-03-17T00:59:30.716Z,316.21
2023-03-17T01:00:31.069Z,317.43
2023-03-17T01:01:30.688Z,315.00
2023-03-17T01:02:30.746Z,316.52
2023-03-17T01:03:30.718Z,316.21
2023-03-17T01:04:30.667Z,314.39
2023-03-17T01:05:30.700Z,316.21
2023-03-17T01:06:30.731Z,316.21
2023-03-17T01:07:30.701Z,318.98
2023-03-17T01:08:30.702Z,320.54
2023-03-17T01:09:30.622Z,323.38
2023-03-17T01:10:31.028Z,322.74
2023-03-17T01:11:30.637Z,322.74
2023-03-17T01:12:30.592Z,327.25
2023-03-17T01:13:30.596Z,330.21
2023-03-17T01:14:30.600Z,328.89
2023-03-17T01:15:30.596Z,330.55
2023-03-17T01:16:30.645Z,330.21
2023-03-17T01:17:30.519Z,333.91
2023-03-17T01:18:30.559Z,334.93
2023-03-17T01:19:30.494Z,335.96
2023-03-17T01:20:30.885Z,336.99
2023-03-17T01:21:30.513Z,339.79
2023-03-17T01:22:30.522Z,341.91
2023-03-17T01:23:30.470Z,343.34
2023-03-17T01:24:30.494Z,349.19
2023-03-17T01:25:30.425Z,349.56
2023-03-17T01:26:30.449Z,354.47
2023-03-17T01:27:30.595Z,355.62
2023-03-17T01:28:30.406Z,357.56
2023-03-17T01:29:30.464Z,362.30
2023-03-17T01:30:30.564Z,365.93
2023-03-17T01:31:30.411Z,367.57
2023-03-17T01:32:30.470Z,367.16
2023-03-17T01:33:30.340Z,371.32
2023-03-17T01:34:30.366Z,370.48
2023-03-17T01:35:30.598Z,376.43
2023-03-17T01:36:30.398Z,376.43
2023-03-17T01:37:30.307Z,382.58
2023-03-17T01:38:30.328Z,383.02
2023-03-17T01:39:30.300Z,386.12
2023-03-17T01:40:30.610Z,385.67
2023-03-17T01:41:30.287Z,390.19
2023-03-17T01:42:30.259Z,390.42
2023-03-17T01:43:30.312Z,394.11
2023-03-17T01:44:30.251Z,395.51
2023-03-17T01:45:30.287Z,396.69
2023-03-17T01:46:30.251Z,398.82
2023-03-17T01:47:30.325Z,400.98
2023-03-17T01:48:30.180Z,403.65
2023-03-17T01:49:30.190Z,405.86
2023-03-17T01:50:30.478Z,407.60
2023-03-17T01:51:30.162Z,407.60
2023-03-17T01:52:30.198Z,407.10
2023-03-17T01:53:30.144Z,410.36
2023-03-17T01:54:30.137Z,412.64
2023-03-17T01:55:30.102Z,413.67
2023-03-17T01:56:30.088Z,413.92
2023-03-17T01:57:30.156Z,415.99
2023-03-17T01:58:30.087Z,415.47
2023-03-17T01:59:30.101Z,415.99
2023-03-17T02:00:30.291Z,417.55
2023-03-17T02:01:30.077Z,418.60
2023-03-17T02:02:30.073Z,420.71
2023-03-17T02:03:30.031Z,419.65
2023-03-17T02:04:30.072Z,420.18
2023-03-17T02:05:30.065Z,422.05
2023-03-17T02:06:30.014Z,420.71
2023-03-17T02:07:30.038Z,421.78
2023-03-17T02:08:29.997Z,423.39
2023-03-17T02:09:30.000Z,424.19
2023-03-17T02:10:30.362Z,423.92
2023-03-17T02:11:29.990Z,421.51
2023-03-17T02:12:29.961Z,423.92
2023-03-17T02:13:29.971Z,424.73
2023-03-17T02:14:30.056Z,428.01
2023-03-17T02:15:29.942Z,428.01
2023-03-17T02:16:29.964Z,427.46
2023-03-17T02:17:29.913Z,429.94
2023-03-17T02:18:29.899Z,428.83
2023-03-17T02:19:29.997Z,432.17
2023-03-17T02:20:30.034Z,426.09
2023-03-17T02:21:29.918Z,427.73
2023-03-17T02:22:29.910Z,426.36
2023-03-17T02:23:29.874Z,426.09
2023-03-17T02:24:29.776Z,426.09
2023-03-17T02:25:29.825Z,426.91
2023-03-17T02:26:29.777Z,427.73
2023-03-17T02:27:29.819Z,427.46
2023-03-17T02:28:29.776Z,429.38
2023-03-17T02:29:29.769Z,428.83
2023-03-17T02:30:30.072Z,431.61
2023-03-17T02:31:29.717Z,436.12
2023-03-17T02:32:29.788Z,437.84
2023-03-17T02:33:29.741Z,438.42
2023-03-17T02:34:29.701Z,435.84
2023-03-17T02:35:29.750Z,439.28
2023-03-17T02:36:29.682Z,439.86
2023-03-17T02:37:29.706Z,440.73
2023-03-17T02:38:29.643Z,441.90
2023-03-17T02:39:29.637Z,440.73
2023-03-17T02:40:30.010Z,440.73
2023-03-17T02:41:29.622Z,441.90
2023-03-17T02:42:29.730Z,441.03
2023-03-17T02:43:29.612Z,441.32
2023-03-17T02:44:29.604Z,443.96
2023-03-17T02:45:29.757Z,443.08
2023-03-17T02:46:29.602Z,443.96
2023-03-17T02:47:29.554Z,443.96
2023-03-17T02:48:29.559Z,446.04
2023-03-17T02:49:29.568Z,445.45
2023-03-17T02:50:29.816Z,444.26
2023-03-17T02:51:29.498Z,444.85
2023-03-17T02:52:29.497Z,444.55
2023-03-17T02:53:29.532Z,446.94
2023-03-17T02:54:29.604Z,444.85
2023-03-17T02:55:29.482Z,444.85
2023-03-17T02:56:29.481Z,443.96
2023-03-17T02:57:29.493Z,444.85
2023-03-17T02:58:29.429Z,447.54
2023-03-17T02:59:29.489Z,445.45
2023-03-17T03:00:29.723Z,447.24
2023-03-17T03:01:29.510Z,448.14
2023-03-17T03:02:29.500Z,444.26
2023-03-17T03:03:29.365Z,443.96
2023-03-17T03:04:29.530Z,446.04
2023-03-17T03:05:29.417Z,442.20
2023-03-17T03:06:29.378Z,439.28
2023-03-17T03:07:29.360Z,440.73
2023-03-17T03:08:29.421Z,440.73
2023-03-17T03:09:29.371Z,440.44
2023-03-17T03:10:29.565Z,441.03
2023-03-17T03:11:29.397Z,442.49
2023-03-17T03:12:29.305Z,441.61
2023-03-17T03:13:29.282Z,442.78
2023-03-17T03:14:29.340Z,442.20
2023-03-17T03:15:29.346Z,441.03
2023-03-17T03:16:29.321Z,441.03
2023-03-17T03:17:29.282Z,438.42
2023-03-17T03:18:29.224Z,436.41
2023-03-17T03:19:29.264Z,442.78
2023-03-17T03:20:29.480Z,440.73
2023-03-17T03:21:29.212Z,436.12
2023-03-17T03:22:29.203Z,433.29
2023-03-17T03:23:29.217Z,432.73
2023-03-17T03:24:29.193Z,433.85
2023-03-17T03:25:29.201Z,433.01
2023-03-17T03:26:29.230Z,434.14
2023-03-17T03:27:29.259Z,436.41
2023-03-17T03:28:29.271Z,435.84
2023-03-17T03:29:29.153Z,436.12
2023-03-17T03:30:29.388Z,437.55
2023-03-17T03:31:29.185Z,436.69
2023-03-17T03:32:29.164Z,432.45
2023-03-17T03:33:29.055Z,432.17
2023-03-17T03:34:29.108Z,433.01
2023-03-17T03:35:29.168Z,431.05
2023-03-17T03:36:29.122Z,431.05
2023-03-17T03:37:29.042Z,428.55
2023-03-17T03:38:29.008Z,430.49
2023-03-17T03:39:29.023Z,430.21
2023-03-17T03:40:29.342Z,431.61
2023-03-17T03:41:29.083Z,429.38
2023-03-17T03:42:28.990Z,431.33
2023-03-17T03:43:29.204Z,432.17
2023-03-17T03:44:28.979Z,435.27
2023-03-17T03:45:29.038Z,433.85
2023-03-17T03:46:29.068Z,435.55
2023-03-17T03:47:28.992Z,434.70
2023-03-17T03:48:28.981Z,433.85
2023-03-17T03:49:28.948Z,432.73
2023-03-17T03:50:29.323Z,432.73
2023-03-17T03:51:28.915Z,435.84
2023-03-17T03:52:28.863Z,428.83
2023-03-17T03:53:28.975Z,430.49
2023-03-17T03:54:28.816Z,428.83
2023-03-17T03:55:28.822Z,426.91
2023-03-17T03:56:28.863Z,425.01
2023-03-17T03:57:28.820Z,426.91
2023-03-17T03:58:28.806Z,423.92
2023-03-17T03:59:29.047Z,424.73
2023-03-17T04:00:29.227Z,420.98
2023-03-17T04:01:28.773Z,421.78
2023-03-17T04:02:28.811Z,419.92
2023-03-17T04:03:28.845Z,418.08
2023-03-17T04:04:28.804Z,416.77
2023-03-17T04:05:28.732Z,415.21
2023-03-17T04:06:28.760Z,414.70
2023-03-17T04:07:28.714Z,413.41
2023-03-17T04:08:28.730Z,410.36
2023-03-17T04:09:28.679Z,412.39
2023-03-17T04:10:28.996Z,407.85
2023-03-17T04:11:28.660Z,405.86
2023-03-17T04:12:28.693Z,405.37
2023-03-17T04:13:28.695Z,400.50
2023-03-17T04:14:28.624Z,398.35
2023-03-17T04:15:28.625Z,398.11
2023-03-17T04:16:28.655Z,397.87
2023-03-17T04:17:28.623Z,394.81
2023-03-17T04:18:28.583Z,390.88
2023-03-17T04:19:28.576Z,388.60
2023-03-17T04:20:29.049Z,385.45
2023-03-17T04:21:28.553Z,385.23
2023-03-17T04:22:28.529Z,380.83
2023-03-17T04:23:28.596Z,379.53
2023-03-17T04:24:28.556Z,376.00
2023-03-17T04:25:28.499Z,372.16
2023-03-17T04:26:28.586Z,369.23
2023-03-17T04:27:28.498Z,367.57
2023-03-17T04:28:28.482Z,366.34
2023-03-17T04:29:28.517Z,363.90
2023-03-17T04:30:29.019Z,362.70
2023-03-17T04:31:28.428Z,359.91
2023-03-17T04:32:28.519Z,356.39
2023-03-17T04:33:28.478Z,356.78
2023-03-17T04:34:29.258Z,356.01
2023-03-17T04:35:28.469Z,353.33
2023-03-17T04:36:28.407Z,353.71
2023-03-17T04:37:28.369Z,351.43
2023-03-17T04:38:28.364Z,352.19
2023-03-17T04:39:28.358Z,348.45
2023-03-17T04:40:28.589Z,347.71
2023-03-17T04:41:28.383Z,350.31
2023-03-17T04:42:28.364Z,349.19
2023-03-17T04:43:28.316Z,347.71
2023-03-17T04:44:28.293Z,346.24
2023-03-17T04:45:28.294Z,346.97
2023-03-17T04:46:28.288Z,344.06
2023-03-17T04:47:28.260Z,345.88
2023-03-17T05:18:40.538Z,369.64
2023-03-17T05:27:43.573Z,337.69
2023-03-17T05:28:43.380Z,317.13
2023-03-17T05:29:42.952Z,303.35
2023-03-17T05:30:42.993Z,295.16
2023-03-17T05:31:42.936Z,286.40
2023-03-17T05:32:43.045Z,279.81
2023-03-17T05:33:42.898Z,273.97
2023-03-17T05:34:42.856Z,272.15
2023-03-17T05:35:42.880Z,265.97
2023-03-17T05:36:42.962Z,264.05
2023-03-17T05:37:42.889Z,259.04
2023-03-17T05:38:42.877Z,256.61
2023-03-17T05:39:42.818Z,255.01
2023-03-17T05:40:42.832Z,252.85
2023-03-17T05:41:42.819Z,248.64
2023-03-17T05:42:42.784Z,247.70
2023-03-17T05:43:42.803Z,244.20
2023-03-17T05:44:42.749Z,241.86
2023-03-17T05:45:42.864Z,241.15
2023-03-17T05:46:42.996Z,238.34
2023-03-17T05:47:42.758Z,237.14
2023-03-17T05:48:43.106Z,235.60
2023-03-17T05:49:42.726Z,231.12
2023-03-17T05:50:42.700Z,231.12
2023-03-17T05:51:42.667Z,230.96
2023-03-17T05:52:42.752Z,228.23
2023-03-17T05:53:42.703Z,227.28
2023-03-17T05:54:42.670Z,225.25
2023-03-17T05:55:42.682Z,224.79
2023-03-17T05:56:42.645Z,223.26
2023-03-17T05:57:42.639Z,224.33
2023-03-17T05:58:42.680Z,221.90
2023-03-17T05:59:42.628Z,222.65
2023-03-17T06:00:42.618Z,221.01
2023-03-17T06:01:42.578Z,218.79
2023-03-17T06:02:42.632Z,220.26
2023-03-17T06:03:42.636Z,219.09
2023-03-17T06:04:42.601Z,221.75
2023-03-17T06:05:42.548Z,221.30
2023-03-17T06:06:42.561Z,220.86
2023-03-17T06:07:53.132Z,222.05
2023-03-17T06:08:43.559Z,221.15
2023-03-17T06:09:42.512Z,219.38
2023-03-17T06:10:42.513Z,218.65
2023-03-17T06:11:42.524Z,219.38
2023-03-17T06:12:42.483Z,217.49
2023-03-17T06:13:42.500Z,218.65
2023-03-17T06:14:42.477Z,217.49
2023-03-17T06:15:42.602Z,217.06
2023-03-17T06:16:42.475Z,217.78
2023-03-17T06:17:42.398Z,219.53
2023-03-17T06:18:42.417Z,224.18
2023-03-17T06:19:42.446Z,229.67
2023-03-17T06:20:42.388Z,236.28
2023-03-17T06:21:42.377Z,240.97
2023-03-17T06:22:55.140Z,244.93
2023-03-17T06:23:43.532Z,246.58
2023-03-17T06:24:42.348Z,250.73
2023-03-17T06:25:42.338Z,257.21
2023-03-17T06:26:42.326Z,260.07
2023-03-17T06:27:42.345Z,264.26
2023-03-17T06:28:42.299Z,270.35
2023-03-17T06:29:42.346Z,275.11
2023-03-17T06:30:42.293Z,278.62
2023-03-17T06:31:42.313Z,281.49
2023-03-17T06:32:42.324Z,284.42
2023-03-17T06:33:42.337Z,285.65
2023-03-17T06:34:42.253Z,287.66
2023-03-17T06:35:42.277Z,288.92
2023-03-17T06:36:42.206Z,290.20
2023-03-17T06:37:42.242Z,289.94
2023-03-17T06:38:43.290Z,289.18
2023-03-17T06:39:42.250Z,289.18
2023-03-17T06:40:42.201Z,292.27
2023-03-17T06:41:42.235Z,294.63
2023-03-17T06:42:42.151Z,298.92
2023-03-17T06:43:42.126Z,299.74
2023-03-17T06:44:42.136Z,302.79
2023-03-17T06:45:42.156Z,304.47
2023-03-17T06:46:42.117Z,309.64
2023-03-17T06:47:42.109Z,312.00
2023-03-17T06:48:42.076Z,314.09
2023-03-17T06:49:42.075Z,315.60
2023-03-17T06:50:42.064Z,316.21
2023-03-17T06:51:42.100Z,316.21
2023-03-17T06:52:42.053Z,318.36
2023-03-17T06:53:42.008Z,318.36
2023-03-17T06:54:42.011Z,321.16
2023-03-17T06:55:42.018Z,319.60
2023-03-17T06:56:42.009Z,321.48
2023-03-17T06:57:41.969Z,319.91
2023-03-17T06:58:41.965Z,316.52
2023-03-17T06:59:41.955Z,315.60
2023-03-17T07:00:42.083Z,310.52
2023-03-17T07:01:42.015Z,311.11
2023-03-17T07:02:41.952Z,307.90
2023-03-17T07:03:41.940Z,303.91
2023-03-17T07:04:41.926Z,301.12
2023-03-17T07:05:41.903Z,298.65
2023-03-17T07:06:41.897Z,297.30
2023-03-17T07:07:41.874Z,297.84
2023-03-17T07:08:41.863Z,297.30
2023-03-17T07:09:41.888Z,294.89
2023-03-17T07:10:41.808Z,292.27
2023-03-17T07:11:41.816Z,292.01
2023-03-17T07:12:41.817Z,289.69
2023-03-17T07:13:41.822Z,286.90
2023-03-17T07:14:41.927Z,286.40
2023-03-17T07:15:41.753Z,285.90
2023-03-17T07:16:41.797Z,284.42
2023-03-17T07:17:41.771Z,282.94
2023-03-17T07:18:41.741Z,282.94
2023-03-17T07:19:41.763Z,282.94
2023-03-17T07:20:41.710Z,281.73
2023-03-17T07:21:41.702Z,280.76
2023-03-17T07:22:41.704Z,280.52
2023-03-17T07:23:41.662Z,281.49
2023-03-17T07:24:41.694Z,281.01
2023-03-17T07:25:41.673Z,280.52
2023-03-17T07:26:41.646Z,280.76
2023-03-17T07:27:41.671Z,278.86
2023-03-17T07:28:41.677Z,279.81
2023-03-17T07:29:41.609Z,280.29
2023-03-17T07:30:41.635Z,280.76
2023-03-17T07:31:41.646Z,280.76
2023-03-17T07:32:41.659Z,281.73
2023-03-17T07:33:41.566Z,281.97
2023-03-17T07:34:41.577Z,284.66
2023-03-17T07:35:41.581Z,285.90
2023-03-17T07:36:41.571Z,286.90
2023-03-17T07:37:41.520Z,287.40
2023-03-17T07:38:41.654Z,291.49
2023-03-17T07:39:41.498Z,290.20
2023-03-17T07:40:41.519Z,295.16
2023-03-17T07:41:41.486Z,293.58
2023-03-17T07:42:41.469Z,292.27
2023-03-17T07:43:41.473Z,298.38
2023-03-17T07:44:41.695Z,293.58
2023-03-17T07:45:41.603Z,296.23
2023-03-17T07:46:41.456Z,297.57
2023-03-17T07:47:41.472Z,300.57
2023-03-17T07:48:41.479Z,300.84
2023-03-17T07:49:42.413Z,305.61
2023-03-17T07:50:41.461Z,305.04
2023-03-17T07:51:41.391Z,299.47
2023-03-17T07:52:41.390Z,304.47
2023-03-17T07:53:41.412Z,309.06
2023-03-17T07:54:43.028Z,312.00
2023-03-17T07:55:41.364Z,313.79
2023-03-17T07:56:41.376Z,317.43
2023-03-17T07:57:41.402Z,324.34
2023-03-17T07:58:41.307Z,326.27
2023-03-17T07:59:41.284Z,326.92
2023-03-17T08:00:41.261Z,330.21
2023-03-17T08:01:41.329Z,331.21
2023-03-17T08:02:41.293Z,331.21
2023-03-17T08:03:41.825Z,333.57
2023-03-17T08:04:41.220Z,335.96
2023-03-17T08:05:41.260Z,338.04
2023-03-17T08:06:41.215Z,341.91
2023-03-17T08:07:41.205Z,342.62
2023-03-17T08:08:41.198Z,345.15
2023-03-17T08:09:41.195Z,344.79
2023-03-17T08:10:41.219Z,347.34
2023-03-17T08:11:41.149Z,350.31
2023-03-17T08:12:41.127Z,350.31
2023-03-17T08:13:41.119Z,353.71
2023-03-17T08:14:41.127Z,356.01
2023-03-17T08:15:41.106Z,356.39
2023-03-17T08:16:41.121Z,359.91
2023-03-17T08:17:41.117Z,357.95
2023-03-17T08:18:41.103Z,360.31
2023-03-17T08:19:41.087Z,363.90
2023-03-17T08:20:41.071Z,365.93
2023-03-17T08:21:41.030Z,370.90
2023-03-17T08:22:41.028Z,372.16
2023-03-17T08:23:41.025Z,377.30
2023-03-17T08:24:41.065Z,376.43
2023-03-17T08:25:41.010Z,381.92
2023-03-17T08:26:41.035Z,380.83
2023-03-17T08:27:40.964Z,383.68
2023-03-17T08:28:41.043Z,386.57
2023-03-17T08:29:40.970Z,388.37
2023-03-17T08:30:41.421Z,392.95
2023-03-17T08:31:40.982Z,393.88
2023-03-17T08:32:41.022Z,393.64
2023-03-17T08:33:40.921Z,395.28
2023-03-17T08:34:40.923Z,393.88
2023-03-17T08:35:40.902Z,394.81
2023-03-17T08:36:40.901Z,396.45
2023-03-17T08:37:40.868Z,397.40
2023-03-17T08:38:40.863Z,401.71
2023-03-17T08:39:40.852Z,400.98
2023-03-17T08:40:40.830Z,405.86
2023-03-17T08:41:40.842Z,409.35
2023-03-17T08:42:40.820Z,410.36
2023-03-17T08:43:40.823Z,407.35
2023-03-17T08:44:43.544Z,411.88
2023-03-17T08:45:40.994Z,408.60
2023-03-17T08:46:40.761Z,410.86
2023-03-17T08:47:40.762Z,406.11
2023-03-17T08:48:40.757Z,404.39
2023-03-17T08:49:40.759Z,407.10
2023-03-17T08:50:40.727Z,403.16
2023-03-17T08:51:40.707Z,404.63
2023-03-17T08:52:40.689Z,401.95
2023-03-17T08:53:40.790Z,397.40
2023-03-17T08:54:40.680Z,399.30
2023-03-17T08:55:40.715Z,402.68
2023-03-17T08:56:40.665Z,402.92
2023-03-17T08:57:40.637Z,404.14
2023-03-17T08:58:40.662Z,402.19
2023-03-17T08:59:40.634Z,401.22
2023-03-17T09:00:40.615Z,402.43
2023-03-17T09:01:40.710Z,400.74
2023-03-17T09:02:40.665Z,398.82
2023-03-17T09:03:40.600Z,396.22
2023-03-17T09:04:40.568Z,397.40
2023-03-17T09:05:40.587Z,395.75
2023-03-17T09:06:48.894Z,393.64
2023-03-17T09:07:41.607Z,394.81
2023-03-17T09:08:40.539Z,398.58
2023-03-17T09:09:40.512Z,393.88
2023-03-17T09:10:42.514Z,390.65
2023-03-17T09:11:40.515Z,390.65
2023-03-17T09:12:40.487Z,387.92
2023-03-17T09:13:40.476Z,387.47
2023-03-17T09:14:44.117Z,389.05
2023-03-17T09:15:40.477Z,392.48
2023-03-17T09:16:40.464Z,392.48
2023-03-17T09:17:40.446Z,391.56
2023-03-17T09:18:40.436Z,397.87
2023-03-17T09:19:40.560Z,402.68
2023-03-17T09:20:40.388Z,406.61
2023-03-17T09:21:40.406Z,404.39
2023-03-17T09:22:40.385Z,401.71
2023-03-17T09:23:40.402Z,402.92
2023-03-17T09:24:40.357Z,401.95
2023-03-17T09:25:40.348Z,403.41
2023-03-17T09:26:40.388Z,406.85
2023-03-17T09:27:40.329Z,409.85
2023-03-17T09:28:40.322Z,407.10
2023-03-17T09:29:40.351Z,410.36
2023-03-17T09:30:40.302Z,408.10
2023-03-17T09:31:40.366Z,409.35
2023-03-17T09:32:40.305Z,411.12
2023-03-17T09:33:40.379Z,406.36
2023-03-17T09:34:40.258Z,405.86
2023-03-17T09:35:40.377Z,405.12
2023-03-17T09:36:40.226Z,405.37
2023-03-17T09:37:40.205Z,401.46
2023-03-17T09:38:40.231Z,404.39
2023-03-17T09:39:40.202Z,407.10
2023-03-17T09:40:40.179Z,409.35
2023-03-17T09:41:40.166Z,409.60
2023-03-17T09:42:40.165Z,408.85
2023-03-17T09:43:40.164Z,409.60
2023-03-17T09:44:40.148Z,411.12
2023-03-17T09:45:42.970Z,411.12
2023-03-17T09:46:40.207Z,413.15
2023-03-17T09:47:42.277Z,412.39
2023-03-17T09:48:40.108Z,419.13
2023-03-17T09:49:40.086Z,417.03
2023-03-17T09:50:40.078Z,418.34
2023-03-17T09:51:40.148Z,418.86
2023-03-17T09:52:40.054Z,422.31
2023-03-17T09:53:40.065Z,426.91
2023-03-17T09:54:40.044Z,426.64
2023-03-17T09:55:40.038Z,434.42
2023-03-17T09:56:40.025Z,434.14
2023-03-17T09:57:40.010Z,435.55
2023-03-17T09:58:40.002Z,442.78
2023-03-17T09:59:40.000Z,444.26
2023-03-17T10:00:40.006Z,443.08
2023-03-17T10:01:40.079Z,442.20
2023-03-17T10:02:40.000Z,446.04
2023-03-17T10:03:39.943Z,446.04
2023-03-17T10:04:39.938Z,448.14
2023-03-17T10:05:39.973Z,451.48
2023-03-17T10:06:39.917Z,452.70
2023-03-17T10:07:39.896Z,453.94
2023-03-17T10:08:39.883Z,461.48
2023-03-17T10:09:39.905Z,464.05
2023-03-17T10:10:39.867Z,467.62
2023-03-17T10:11:39.896Z,467.62
2023-03-17T10:12:39.829Z,472.26
2023-03-17T10:13:39.833Z,475.97
2023-03-17T10:14:39.803Z,475.63
2023-03-17T10:15:39.833Z,475.97
2023-03-17T10:16:39.979Z,480.43
2023-03-17T10:17:39.782Z,479.05
2023-03-17T10:18:39.762Z,483.56
2023-03-17T10:19:39.764Z,481.12
2023-03-17T10:20:39.750Z,482.86
2023-03-17T10:21:39.771Z,482.16
2023-03-17T10:22:39.760Z,488.52
2023-03-17T10:23:39.717Z,487.45
2023-03-17T10:24:39.719Z,491.04
2023-03-17T10:25:39.715Z,488.16
2023-03-17T10:26:39.725Z,488.16
2023-03-17T10:27:39.697Z,491.04
2023-03-17T10:28:39.671Z,487.81
2023-03-17T10:29:39.650Z,486.03
2023-03-17T10:30:39.648Z,491.40
2023-03-17T10:31:39.737Z,493.95
2023-03-17T10:32:39.690Z,493.95
2023-03-17T10:33:39.636Z,496.15
2023-03-17T10:34:39.610Z,495.42
2023-03-17T10:35:39.745Z,493.95
2023-03-17T10:36:39.576Z,499.50
2023-03-17T10:37:40.561Z,499.50
2023-03-17T10:38:39.550Z,502.89
2023-03-17T10:39:39.534Z,503.27
2023-03-17T10:40:39.527Z,502.89
2023-03-17T10:41:39.510Z,504.79
2023-03-17T10:42:39.540Z,506.71
2023-03-17T10:43:39.491Z,508.64
2023-03-17T10:44:39.498Z,509.42
2023-03-17T10:45:42.215Z,511.77
2023-03-17T10:46:39.483Z,512.55
2023-03-17T10:47:39.473Z,511.38
2023-03-17T10:48:39.476Z,512.95
2023-03-17T10:49:39.451Z,514.14
2023-03-17T10:50:39.423Z,513.34
2023-03-17T10:51:39.445Z,512.95
2023-03-17T10:52:39.408Z,511.38
2023-03-17T10:53:39.385Z,510.59
2023-03-17T10:54:39.385Z,512.55
2023-03-17T10:55:39.376Z,517.33
2023-03-17T10:56:39.363Z,518.94
2023-03-17T10:57:39.371Z,523.01
2023-03-17T10:58:39.330Z,525.89
2023-03-17T10:59:41.106Z,528.81
2023-03-17T11:00:39.353Z,530.49
2023-03-17T11:01:39.302Z,532.19
2023-03-17T11:02:39.356Z,531.76
2023-03-17T11:03:39.287Z,533.04
2023-03-17T11:04:39.288Z,532.61
2023-03-17T11:05:40.122Z,534.75
2023-03-17T11:06:39.283Z,534.75
2023-03-17T11:07:39.275Z,533.04
2023-03-17T11:08:39.249Z,535.61
2023-03-17T11:09:39.252Z,535.61
2023-03-17T11:10:39.226Z,536.90
2023-03-17T11:11:39.208Z,537.34
2023-03-17T11:12:39.204Z,538.20
2023-03-17T11:13:39.183Z,541.70
2023-03-17T11:14:39.185Z,541.70
2023-03-17T11:15:39.151Z,542.58
2023-03-17T11:16:39.337Z,542.14
2023-03-17T11:17:39.175Z,543.47
2023-03-17T11:18:39.162Z,549.74
2023-03-17T11:19:39.161Z,553.85
2023-03-17T11:20:39.158Z,555.23
2023-03-17T11:21:39.103Z,557.09
2023-03-17T11:22:39.132Z,559.42
2023-03-17T11:23:39.092Z,559.89
2023-03-17T11:24:39.077Z,558.95
2023-03-17T11:25:39.059Z,561.31
2023-03-17T11:26:39.058Z,560.36
2023-03-17T11:27:39.026Z,560.36
2023-03-17T11:28:39.023Z,561.78
2023-03-17T11:29:39.019Z,563.20
2023-03-17T11:30:39.008Z,565.59
2023-03-17T11:31:39.029Z,564.16
2023-03-17T11:32:39.023Z,565.11
2023-03-17T11:33:38.990Z,564.16
2023-03-17T11:34:38.963Z,562.25
2023-03-17T11:35:39.008Z,561.31
2023-03-17T11:36:38.934Z,562.73
2023-03-17T11:37:38.931Z,564.63
2023-03-17T11:38:38.928Z,565.11
2023-03-17T11:39:38.909Z,565.59
2023-03-17T11:40:38.910Z,563.68
2023-03-17T11:41:38.898Z,558.49
2023-03-17T11:42:38.928Z,558.49
2023-03-17T11:43:38.902Z,557.55
2023-03-17T11:44:38.931Z,557.09
2023-03-17T11:45:38.944Z,556.16
2023-03-17T11:46:38.872Z,554.31
2023-03-17T11:47:38.886Z,557.09
2023-03-17T11:48:38.888Z,556.62
2023-03-17T11:49:38.899Z,558.02
2023-03-17T11:50:38.807Z,557.09
2023-03-17T11:51:39.091Z,558.02
2023-03-17T11:52:38.842Z,559.42
2023-03-17T11:53:38.818Z,560.36
2023-03-17T11:54:38.828Z,560.84
2023-03-17T11:55:38.770Z,561.31
2023-03-17T11:56:38.814Z,561.31
2023-03-17T11:57:38.742Z,557.55
2023-03-17T11:58:38.847Z,555.23
2023-03-17T11:59:38.762Z,554.31
2023-03-17T12:00:38.757Z,553.39
2023-03-17T12:01:38.698Z,554.31
2023-03-17T12:02:38.855Z,554.31
2023-03-17T12:03:38.783Z,554.31
2023-03-17T12:04:38.776Z,555.23
2023-03-17T12:05:38.662Z,554.31
2023-03-17T12:06:38.643Z,555.23
2023-03-17T12:07:38.628Z,554.31
2023-03-17T12:08:38.612Z,552.47
2023-03-17T12:09:38.641Z,553.39
2023-03-17T12:10:38.612Z,552.93
2023-03-17T12:11:38.613Z,551.56
2023-03-17T12:12:38.622Z,551.56
2023-03-17T12:13:38.552Z,551.10
2023-03-17T12:14:38.559Z,549.74
2023-03-17T12:15:38.752Z,548.83
2023-03-17T12:16:38.544Z,550.19
2023-03-17T12:17:38.543Z,547.93
2023-03-17T12:18:38.514Z,546.14
2023-03-17T12:19:38.532Z,544.80
2023-03-17T12:20:38.498Z,543.47
2023-03-17T12:21:38.472Z,542.58
2023-03-17T12:22:38.516Z,539.07
2023-03-17T12:23:38.470Z,537.77
2023-03-17T12:24:38.496Z,537.77
2023-03-17T12:25:38.429Z,534.75
2023-03-17T12:26:38.445Z,533.04
2023-03-17T12:27:38.445Z,534.32
2023-03-17T12:28:38.510Z,533.89
2023-03-17T12:29:38.417Z,532.19
2023-03-17T12:30:38.396Z,533.47
2023-03-17T12:31:38.398Z,532.61
2023-03-17T12:32:38.443Z,530.49
2023-03-17T12:33:38.398Z,529.65
2023-03-17T12:34:38.357Z,527.97
2023-03-17T12:35:38.347Z,526.72
2023-03-17T12:36:38.346Z,527.56
2023-03-17T12:37:38.308Z,527.14
2023-03-17T12:38:38.315Z,526.31
2023-03-17T12:39:38.315Z,525.89
2023-03-17T12:40:38.318Z,526.72
2023-03-17T12:41:38.280Z,525.89
2023-03-17T12:42:38.281Z,525.89
2023-03-17T12:43:38.245Z,527.14
2023-03-17T12:44:38.234Z,529.23
2023-03-17T12:45:38.250Z,527.56
2023-03-17T12:46:38.315Z,530.49
2023-03-17T12:47:38.240Z,531.34
2023-03-17T12:48:38.215Z,538.64
2023-03-17T12:49:38.168Z,537.77
2023-03-17T12:50:38.184Z,539.51
2023-03-17T12:51:38.717Z,539.95
2023-03-17T12:52:38.171Z,541.26
2023-03-17T12:53:38.184Z,542.58
2023-03-17T12:54:38.139Z,542.58
2023-03-17T12:55:38.107Z,543.47
2023-03-17T12:56:38.356Z,542.58
2023-03-17T12:57:38.157Z,541.70
2023-03-17T12:58:38.100Z,540.82
2023-03-17T12:59:38.081Z,542.58
2023-03-17T13:00:38.164Z,541.26
2023-03-17T13:01:38.146Z,540.82
2023-03-17T13:02:38.278Z,540.82
2023-03-17T13:03:38.303Z,538.20
2023-03-17T13:04:38.010Z,539.07
2023-03-17T13:05:38.073Z,536.47
2023-03-17T13:06:37.985Z,538.64
2023-03-17T13:07:37.982Z,538.64
2023-03-17T13:08:37.951Z,540.82
2023-03-17T13:09:37.958Z,539.95
2023-03-17T13:10:37.980Z,541.70
2023-03-17T13:11:37.905Z,543.02
2023-03-17T13:12:38.018Z,542.14
2023-03-17T13:13:38.035Z,543.02
2023-03-17T13:14:37.936Z,541.70
2023-03-17T13:15:37.904Z,539.95
2023-03-17T13:16:38.054Z,537.34
2023-03-17T13:17:37.875Z,536.90
2023-03-17T13:18:37.976Z,537.34
2023-03-17T13:19:37.841Z,534.75
2023-03-17T13:20:37.807Z,534.75
2023-03-17T13:21:37.831Z,533.89
2023-03-17T13:22:37.781Z,533.04
2023-03-17T13:23:37.781Z,533.04
2023-03-17T13:24:37.754Z,531.34
2023-03-17T13:25:37.753Z,528.81
2023-03-17T13:26:37.744Z,528.81
2023-03-17T13:27:37.754Z,525.48
2023-03-17T13:28:58.723Z,526.31
2023-03-17T13:29:37.709Z,525.48
2023-03-17T13:30:37.758Z,525.07
2023-03-17T13:31:37.843Z,525.48
2023-03-17T13:32:37.716Z,526.31
2023-03-17T13:33:37.667Z,528.39
2023-03-17T13:34:37.648Z,528.39
2023-03-17T13:35:37.697Z,527.56
2023-03-17T13:36:37.633Z,527.56
2023-03-17T13:37:37.640Z,527.56
2023-03-17T13:38:37.627Z,528.39
2023-03-17T13:39:37.600Z,531.76
2023-03-17T13:40:37.593Z,527.14
2023-03-17T13:41:37.587Z,527.97
2023-03-17T13:42:37.630Z,528.81
2023-03-17T13:43:37.557Z,530.49
2023-03-17T13:44:37.590Z,527.14
2023-03-17T13:45:37.556Z,526.72
2023-03-17T13:46:37.610Z,527.56
2023-03-17T13:47:37.533Z,525.89
2023-03-17T13:48:37.584Z,526.72
2023-03-17T13:49:37.514Z,527.14